sensor_id;sensor_type;location;lat;lon;timestamp;temperature;humidity
34095;DHT22;20372;47.080;15.410;2022-10-24T00:00:40;11.20;99.90
34095;DHT22;20372;47.080;15.410;2022-10-24T00:03:06;11.40;99.90
34095;DHT22;20372;47.080;15.410;2022-10-24T00:05:32;11.50;99.90
34095;DHT22;20372;47.080;15.410;2022-10-24T00:07:57;11.40;99.90
34095;DHT22;20372;47.080;15.410;2022-10-24T00:10:23;11.40;99.90
34095;DHT22;20372;47.080;15.410;2022-10-24T00:12:48;11.30;99.90
34095;DHT22;20372;47.080;15.410;2022-10-24T00:15:14;11.30;99.90
34095;DHT22;20372;47.080;15.410;2022-10-24T00:17:40;11.20;99.90
34095;DHT22;20372;47.080;15.410;2022-10-24T00:20:06;11.30;99.90
34095;DHT22;20372;47.080;15.410;2022-10-24T00:22:31;11.40;99.90
34095;DHT22;20372;47.080;15.410;2022-10-24T00:24:57;11.30;99.90
34095;DHT22;20372;47.080;15.410;2022-10-24T00:27:23;11.20;99.90
34095;DHT22;20372;47.080;15.410;2022-10-24T00:29:48;11.20;99.90
34095;DHT22;20372;47.080;15.410;2022-10-24T00:32:14;11.00;99.90
34095;DHT22;20372;47.080;15.410;2022-10-24T00:34:39;11.00;99.90
34095;DHT22;20372;47.080;15.410;2022-10-24T00:37:05;11.10;99.90
34095;DHT22;20372;47.080;15.410;2022-10-24T00:39:31;11.00;99.90
34095;DHT22;20372;47.080;15.410;2022-10-24T00:41:56;11.00;99.90
34095;DHT22;20372;47.080;15.410;2022-10-24T00:44:24;11.00;99.90
34095;DHT22;20372;47.080;15.410;2022-10-24T00:46:55;11.00;99.90
34095;DHT22;20372;47.080;15.410;2022-10-24T00:49:23;11.00;99.90
34095;DHT22;20372;47.080;15.410;2022-10-24T00:51:51;11.00;99.90
34095;DHT22;20372;47.080;15.410;2022-10-24T00:54:18;11.00;99.90
34095;DHT22;20372;47.080;15.410;2022-10-24T00:56:46;11.00;99.90
34095;DHT22;20372;47.080;15.410;2022-10-24T00:59:14;10.90;99.90
34095;DHT22;20372;47.080;15.410;2022-10-24T01:01:41;10.90;99.90
34095;DHT22;20372;47.080;15.410;2022-10-24T01:04:08;10.90;99.90
34095;DHT22;20372;47.080;15.410;2022-10-24T01:14:27;11.10;99.90
34095;DHT22;20372;47.080;15.410;2022-10-24T01:17:06;11.00;99.90
34095;DHT22;20372;47.080;15.410;2022-10-24T01:22:14;11.00;99.90
34095;DHT22;20372;47.080;15.410;2022-10-24T01:35:02;11.10;99.90
34095;DHT22;20372;47.080;15.410;2022-10-24T01:37:34;11.10;99.90
34095;DHT22;20372;47.080;15.410;2022-10-24T01:40:08;11.20;99.90
34095;DHT22;20372;47.080;15.410;2022-10-24T01:42:35;11.20;99.90
34095;DHT22;20372;47.080;15.410;2022-10-24T01:45:02;11.20;99.90
34095;DHT22;20372;47.080;15.410;2022-10-24T01:47:31;11.10;99.90
34095;DHT22;20372;47.080;15.410;2022-10-24T01:49:58;11.10;99.90
34095;DHT22;20372;47.080;15.410;2022-10-24T01:52:27;11.20;99.90
34095;DHT22;20372;47.080;15.410;2022-10-24T01:54:53;11.20;99.90
34095;DHT22;20372;47.080;15.410;2022-10-24T01:57:19;11.20;99.90
34095;DHT22;20372;47.080;15.410;2022-10-24T01:59:47;11.10;99.90
34095;DHT22;20372;47.080;15.410;2022-10-24T02:02:26;11.10;99.90
34095;DHT22;20372;47.080;15.410;2022-10-24T02:04:56;11.00;99.90
34095;DHT22;20372;47.080;15.410;2022-10-24T02:07:23;11.00;99.90
34095;DHT22;20372;47.080;15.410;2022-10-24T02:09:51;11.00;99.90
34095;DHT22;20372;47.080;15.410;2022-10-24T02:12:18;10.90;99.90
34095;DHT22;20372;47.080;15.410;2022-10-24T02:14:46;10.90;99.90
34095;DHT22;20372;47.080;15.410;2022-10-24T02:17:13;10.90;99.90
34095;DHT22;20372;47.080;15.410;2022-10-24T02:19:39;10.90;99.90
34095;DHT22;20372;47.080;15.410;2022-10-24T02:27:54;11.40;99.90
34095;DHT22;20372;47.080;15.410;2022-10-24T02:30:22;11.30;99.90
34095;DHT22;20372;47.080;15.410;2022-10-24T02:32:52;11.20;99.90
34095;DHT22;20372;47.080;15.410;2022-10-24T02:35:19;11.10;99.90
34095;DHT22;20372;47.080;15.410;2022-10-24T02:37:51;11.00;99.90
34095;DHT22;20372;47.080;15.410;2022-10-24T02:40:18;11.00;99.90
34095;DHT22;20372;47.080;15.410;2022-10-24T02:42:45;11.00;99.90
34095;DHT22;20372;47.080;15.410;2022-10-24T02:45:11;11.70;99.90
34095;DHT22;20372;47.080;15.410;2022-10-24T02:47:38;11.40;99.90
34095;DHT22;20372;47.080;15.410;2022-10-24T02:50:04;11.30;99.90
34095;DHT22;20372;47.080;15.410;2022-10-24T02:52:30;11.20;99.90
34095;DHT22;20372;47.080;15.410;2022-10-24T02:54:56;11.00;99.90
34095;DHT22;20372;47.080;15.410;2022-10-24T02:57:22;11.20;99.90
34095;DHT22;20372;47.080;15.410;2022-10-24T02:59:49;11.20;99.90
34095;DHT22;20372;47.080;15.410;2022-10-24T03:02:14;11.60;99.90
34095;DHT22;20372;47.080;15.410;2022-10-24T03:04:40;13.30;99.90
34095;DHT22;20372;47.080;15.410;2022-10-24T03:07:06;14.00;99.90
34095;DHT22;20372;47.080;15.410;2022-10-24T03:09:32;14.50;99.90
34095;DHT22;20372;47.080;15.410;2022-10-24T03:11:58;15.20;99.90
34095;DHT22;20372;47.080;15.410;2022-10-24T03:14:23;15.50;99.90
34095;DHT22;20372;47.080;15.410;2022-10-24T03:16:49;15.70;99.90
34095;DHT22;20372;47.080;15.410;2022-10-24T03:19:14;15.80;99.90
34095;DHT22;20372;47.080;15.410;2022-10-24T03:21:40;15.90;99.90
34095;DHT22;20372;47.080;15.410;2022-10-24T03:24:06;15.80;99.90
34095;DHT22;20372;47.080;15.410;2022-10-24T03:26:32;15.60;99.90
34095;DHT22;20372;47.080;15.410;2022-10-24T03:28:58;15.30;99.90
34095;DHT22;20372;47.080;15.410;2022-10-24T03:31:23;15.30;99.90
34095;DHT22;20372;47.080;15.410;2022-10-24T03:33:49;15.10;99.90
34095;DHT22;20372;47.080;15.410;2022-10-24T03:36:15;15.10;99.90
34095;DHT22;20372;47.080;15.410;2022-10-24T03:38:40;15.00;99.90
34095;DHT22;20372;47.080;15.410;2022-10-24T03:41:06;14.60;99.90
34095;DHT22;20372;47.080;15.410;2022-10-24T03:43:32;14.20;99.90
34095;DHT22;20372;47.080;15.410;2022-10-24T03:45:57;13.90;99.90
34095;DHT22;20372;47.080;15.410;2022-10-24T03:48:24;13.50;99.90
34095;DHT22;20372;47.080;15.410;2022-10-24T03:50:49;13.20;99.90
34095;DHT22;20372;47.080;15.410;2022-10-24T03:53:15;13.00;99.90
34095;DHT22;20372;47.080;15.410;2022-10-24T03:55:41;12.70;99.90
34095;DHT22;20372;47.080;15.410;2022-10-24T03:58:06;12.50;99.90
34095;DHT22;20372;47.080;15.410;2022-10-24T04:00:32;12.30;99.90
34095;DHT22;20372;47.080;15.410;2022-10-24T04:03:03;12.20;99.90
34095;DHT22;20372;47.080;15.410;2022-10-24T04:05:29;12.10;99.90
34095;DHT22;20372;47.080;15.410;2022-10-24T04:07:54;12.10;99.90
34095;DHT22;20372;47.080;15.410;2022-10-24T04:10:20;12.10;99.90
34095;DHT22;20372;47.080;15.410;2022-10-24T04:12:45;12.10;99.90
34095;DHT22;20372;47.080;15.410;2022-10-24T04:15:11;12.10;99.90
34095;DHT22;20372;47.080;15.410;2022-10-24T04:17:37;12.10;99.90
34095;DHT22;20372;47.080;15.410;2022-10-24T04:20:03;12.20;99.90
34095;DHT22;20372;47.080;15.410;2022-10-24T04:22:28;12.40;99.90
34095;DHT22;20372;47.080;15.410;2022-10-24T04:24:54;12.30;99.90
34095;DHT22;20372;47.080;15.410;2022-10-24T04:27:19;12.40;99.90
34095;DHT22;20372;47.080;15.410;2022-10-24T04:29:45;12.10;99.90
34095;DHT22;20372;47.080;15.410;2022-10-24T04:32:11;11.90;99.90
34095;DHT22;20372;47.080;15.410;2022-10-24T04:34:36;11.90;99.90
34095;DHT22;20372;47.080;15.410;2022-10-24T04:37:02;11.70;99.90
34095;DHT22;20372;47.080;15.410;2022-10-24T04:39:28;11.60;99.90
34095;DHT22;20372;47.080;15.410;2022-10-24T04:41:53;11.60;99.90
34095;DHT22;20372;47.080;15.410;2022-10-24T04:44:19;11.60;99.90
34095;DHT22;20372;47.080;15.410;2022-10-24T04:46:44;11.60;99.90
34095;DHT22;20372;47.080;15.410;2022-10-24T04:49:10;11.80;99.90
34095;DHT22;20372;47.080;15.410;2022-10-24T04:51:35;11.80;99.90
34095;DHT22;20372;47.080;15.410;2022-10-24T04:54:01;13.00;99.90
34095;DHT22;20372;47.080;15.410;2022-10-24T04:56:27;13.70;99.90
34095;DHT22;20372;47.080;15.410;2022-10-24T04:58:52;13.80;99.90
34095;DHT22;20372;47.080;15.410;2022-10-24T05:01:18;13.90;99.90
34095;DHT22;20372;47.080;15.410;2022-10-24T05:03:44;13.90;99.90
34095;DHT22;20372;47.080;15.410;2022-10-24T05:06:10;13.80;99.90
34095;DHT22;20372;47.080;15.410;2022-10-24T05:08:35;13.70;99.90
34095;DHT22;20372;47.080;15.410;2022-10-24T05:11:01;13.70;99.90
34095;DHT22;20372;47.080;15.410;2022-10-24T05:13:27;13.70;99.90
34095;DHT22;20372;47.080;15.410;2022-10-24T05:15:53;13.60;99.90
34095;DHT22;20372;47.080;15.410;2022-10-24T05:18:18;13.50;99.90
34095;DHT22;20372;47.080;15.410;2022-10-24T05:20:44;13.50;99.90
34095;DHT22;20372;47.080;15.410;2022-10-24T05:23:09;13.40;99.90
34095;DHT22;20372;47.080;15.410;2022-10-24T05:25:35;13.10;99.90
34095;DHT22;20372;47.080;15.410;2022-10-24T05:28:00;12.80;99.90
34095;DHT22;20372;47.080;15.410;2022-10-24T05:30:26;12.60;99.90
34095;DHT22;20372;47.080;15.410;2022-10-24T05:32:52;12.50;99.90
34095;DHT22;20372;47.080;15.410;2022-10-24T05:35:17;12.30;99.90
34095;DHT22;20372;47.080;15.410;2022-10-24T05:37:43;12.20;99.90
34095;DHT22;20372;47.080;15.410;2022-10-24T05:40:09;12.20;99.90
34095;DHT22;20372;47.080;15.410;2022-10-24T05:42:34;12.30;99.90
34095;DHT22;20372;47.080;15.410;2022-10-24T05:45:00;12.30;99.90
34095;DHT22;20372;47.080;15.410;2022-10-24T05:47:26;12.40;99.90
34095;DHT22;20372;47.080;15.410;2022-10-24T05:49:52;12.40;99.90
34095;DHT22;20372;47.080;15.410;2022-10-24T05:52:17;12.50;99.90
34095;DHT22;20372;47.080;15.410;2022-10-24T05:54:43;12.40;99.90
34095;DHT22;20372;47.080;15.410;2022-10-24T05:57:08;12.70;99.90
34095;DHT22;20372;47.080;15.410;2022-10-24T05:59:34;12.70;99.90
34095;DHT22;20372;47.080;15.410;2022-10-24T06:01:59;12.50;99.90
34095;DHT22;20372;47.080;15.410;2022-10-24T06:04:25;12.30;99.90
34095;DHT22;20372;47.080;15.410;2022-10-24T06:06:50;12.30;99.90
34095;DHT22;20372;47.080;15.410;2022-10-24T06:09:16;12.50;99.90
34095;DHT22;20372;47.080;15.410;2022-10-24T06:11:42;12.70;99.90
34095;DHT22;20372;47.080;15.410;2022-10-24T06:14:07;12.50;99.90
34095;DHT22;20372;47.080;15.410;2022-10-24T06:16:33;12.30;99.90
34095;DHT22;20372;47.080;15.410;2022-10-24T06:18:59;12.40;99.90
34095;DHT22;20372;47.080;15.410;2022-10-24T06:21:25;12.40;99.90
34095;DHT22;20372;47.080;15.410;2022-10-24T06:23:50;12.40;99.90
34095;DHT22;20372;47.080;15.410;2022-10-24T06:26:16;12.50;99.90
34095;DHT22;20372;47.080;15.410;2022-10-24T06:28:42;12.40;99.90
34095;DHT22;20372;47.080;15.410;2022-10-24T06:31:08;12.40;99.90
34095;DHT22;20372;47.080;15.410;2022-10-24T06:33:35;12.40;99.90
34095;DHT22;20372;47.080;15.410;2022-10-24T06:36:01;12.40;99.90
34095;DHT22;20372;47.080;15.410;2022-10-24T06:38:29;12.40;99.90
34095;DHT22;20372;47.080;15.410;2022-10-24T06:40:54;12.40;99.90
34095;DHT22;20372;47.080;15.410;2022-10-24T06:43:20;12.50;99.90
34095;DHT22;20372;47.080;15.410;2022-10-24T06:45:45;12.50;99.90
34095;DHT22;20372;47.080;15.410;2022-10-24T06:48:11;12.50;99.90
34095;DHT22;20372;47.080;15.410;2022-10-24T06:50:37;12.70;99.90
34095;DHT22;20372;47.080;15.410;2022-10-24T06:53:05;12.60;99.90
34095;DHT22;20372;47.080;15.410;2022-10-24T06:55:31;12.70;99.90
34095;DHT22;20372;47.080;15.410;2022-10-24T06:57:56;12.70;99.90
34095;DHT22;20372;47.080;15.410;2022-10-24T07:00:22;13.00;99.90
34095;DHT22;20372;47.080;15.410;2022-10-24T07:02:47;13.40;99.90
34095;DHT22;20372;47.080;15.410;2022-10-24T07:05:13;13.50;99.90
34095;DHT22;20372;47.080;15.410;2022-10-24T07:07:39;13.90;99.90
34095;DHT22;20372;47.080;15.410;2022-10-24T07:10:06;13.90;99.90
34095;DHT22;20372;47.080;15.410;2022-10-24T07:12:32;13.90;99.90
34095;DHT22;20372;47.080;15.410;2022-10-24T07:14:57;13.80;99.90
34095;DHT22;20372;47.080;15.410;2022-10-24T07:17:23;13.90;99.90
34095;DHT22;20372;47.080;15.410;2022-10-24T07:19:52;14.00;99.90
34095;DHT22;20372;47.080;15.410;2022-10-24T07:22:18;14.00;99.90
34095;DHT22;20372;47.080;15.410;2022-10-24T07:24:43;14.10;99.90
34095;DHT22;20372;47.080;15.410;2022-10-24T07:27:10;14.10;99.90
34095;DHT22;20372;47.080;15.410;2022-10-24T07:29:37;14.10;99.90
34095;DHT22;20372;47.080;15.410;2022-10-24T07:32:02;14.10;99.90
34095;DHT22;20372;47.080;15.410;2022-10-24T07:34:28;13.90;99.90
34095;DHT22;20372;47.080;15.410;2022-10-24T07:36:54;13.80;99.90
34095;DHT22;20372;47.080;15.410;2022-10-24T07:39:19;13.80;99.90
34095;DHT22;20372;47.080;15.410;2022-10-24T07:41:45;13.90;99.90
34095;DHT22;20372;47.080;15.410;2022-10-24T07:44:10;14.00;99.90
34095;DHT22;20372;47.080;15.410;2022-10-24T07:46:36;14.10;99.90
34095;DHT22;20372;47.080;15.410;2022-10-24T07:49:02;14.10;99.90
34095;DHT22;20372;47.080;15.410;2022-10-24T07:51:27;14.20;99.90
34095;DHT22;20372;47.080;15.410;2022-10-24T07:53:55;14.50;99.90
34095;DHT22;20372;47.080;15.410;2022-10-24T07:56:20;14.80;99.90
34095;DHT22;20372;47.080;15.410;2022-10-24T07:58:46;15.10;99.90
34095;DHT22;20372;47.080;15.410;2022-10-24T08:01:14;15.00;99.90
34095;DHT22;20372;47.080;15.410;2022-10-24T08:03:39;15.10;99.90
34095;DHT22;20372;47.080;15.410;2022-10-24T08:06:06;15.20;99.90
34095;DHT22;20372;47.080;15.410;2022-10-24T08:08:32;15.30;99.90
34095;DHT22;20372;47.080;15.410;2022-10-24T08:10:57;15.50;99.90
34095;DHT22;20372;47.080;15.410;2022-10-24T08:13:23;15.50;99.90
34095;DHT22;20372;47.080;15.410;2022-10-24T08:15:48;15.40;99.90
34095;DHT22;20372;47.080;15.410;2022-10-24T08:18:14;15.30;99.90
34095;DHT22;20372;47.080;15.410;2022-10-24T08:20:40;15.60;99.90
34095;DHT22;20372;47.080;15.410;2022-10-24T08:23:05;15.20;99.90
34095;DHT22;20372;47.080;15.410;2022-10-24T08:25:31;15.10;99.90
34095;DHT22;20372;47.080;15.410;2022-10-24T08:27:57;15.00;99.90
34095;DHT22;20372;47.080;15.410;2022-10-24T08:30:22;15.20;99.90
34095;DHT22;20372;47.080;15.410;2022-10-24T08:32:49;15.30;99.90
34095;DHT22;20372;47.080;15.410;2022-10-24T08:35:15;15.40;99.90
34095;DHT22;20372;47.080;15.410;2022-10-24T08:37:41;15.40;99.90
34095;DHT22;20372;47.080;15.410;2022-10-24T08:40:08;15.40;99.90
34095;DHT22;20372;47.080;15.410;2022-10-24T08:42:33;15.50;99.90
34095;DHT22;20372;47.080;15.410;2022-10-24T08:44:59;15.70;99.90
34095;DHT22;20372;47.080;15.410;2022-10-24T08:47:28;16.10;99.90
34095;DHT22;20372;47.080;15.410;2022-10-24T08:55:17;16.10;99.90
34095;DHT22;20372;47.080;15.410;2022-10-24T08:57:46;16.20;99.90
34095;DHT22;20372;47.080;15.410;2022-10-24T09:00:20;16.40;99.90
34095;DHT22;20372;47.080;15.410;2022-10-24T09:02:48;16.50;99.90
34095;DHT22;20372;47.080;15.410;2022-10-24T09:07:41;16.70;99.90
34095;DHT22;20372;47.080;15.410;2022-10-24T09:10:13;16.60;99.90
34095;DHT22;20372;47.080;15.410;2022-10-24T09:12:41;16.80;99.90
34095;DHT22;20372;47.080;15.410;2022-10-24T09:15:14;16.80;99.90
34095;DHT22;20372;47.080;15.410;2022-10-24T09:17:40;16.90;99.90
34095;DHT22;20372;47.080;15.410;2022-10-24T09:22:35;17.20;99.90
34095;DHT22;20372;47.080;15.410;2022-10-24T09:25:05;17.20;99.90
34095;DHT22;20372;47.080;15.410;2022-10-24T09:27:32;17.30;99.90
34095;DHT22;20372;47.080;15.410;2022-10-24T09:29:58;17.60;99.90
34095;DHT22;20372;47.080;15.410;2022-10-24T09:32:25;17.90;99.90
34095;DHT22;20372;47.080;15.410;2022-10-24T09:34:52;18.40;99.90
34095;DHT22;20372;47.080;15.410;2022-10-24T09:40:24;19.10;99.90
34095;DHT22;20372;47.080;15.410;2022-10-24T09:42:55;19.20;99.90
34095;DHT22;20372;47.080;15.410;2022-10-24T09:47:56;18.60;99.90
34095;DHT22;20372;47.080;15.410;2022-10-24T09:50:22;18.30;99.90
34095;DHT22;20372;47.080;15.410;2022-10-24T09:52:49;18.20;99.90
34095;DHT22;20372;47.080;15.410;2022-10-24T09:55:19;18.30;99.90
34095;DHT22;20372;47.080;15.410;2022-10-24T09:57:45;18.30;99.90
34095;DHT22;20372;47.080;15.410;2022-10-24T10:00:22;18.30;99.90
34095;DHT22;20372;47.080;15.410;2022-10-24T10:02:58;18.40;99.90
34095;DHT22;20372;47.080;15.410;2022-10-24T10:05:28;18.50;99.90
34095;DHT22;20372;47.080;15.410;2022-10-24T10:07:54;18.50;99.90
34095;DHT22;20372;47.080;15.410;2022-10-24T10:10:30;18.90;99.90
34095;DHT22;20372;47.080;15.410;2022-10-24T10:15:32;18.90;99.90
34095;DHT22;20372;47.080;15.410;2022-10-24T10:18:01;18.50;99.90
34095;DHT22;20372;47.080;15.410;2022-10-24T10:20:30;18.40;99.90
34095;DHT22;20372;47.080;15.410;2022-10-24T10:23:14;18.60;99.90
34095;DHT22;20372;47.080;15.410;2022-10-24T10:25:40;18.60;99.90
34095;DHT22;20372;47.080;15.410;2022-10-24T10:28:16;18.50;99.90
34095;DHT22;20372;47.080;15.410;2022-10-24T10:30:47;18.30;99.90
34095;DHT22;20372;47.080;15.410;2022-10-24T10:33:29;17.80;99.90
34095;DHT22;20372;47.080;15.410;2022-10-24T10:36:04;18.40;99.90
34095;DHT22;20372;47.080;15.410;2022-10-24T10:49:09;18.90;99.90
34095;DHT22;20372;47.080;15.410;2022-10-24T10:54:19;18.60;99.90
34095;DHT22;20372;47.080;15.410;2022-10-24T10:57:02;18.60;99.90
34095;DHT22;20372;47.080;15.410;2022-10-24T11:04:42;18.70;99.90
34095;DHT22;20372;47.080;15.410;2022-10-24T11:09:55;18.50;99.90
34095;DHT22;20372;47.080;15.410;2022-10-24T11:12:23;18.50;99.90
34095;DHT22;20372;47.080;15.410;2022-10-24T11:14:59;18.50;99.90
34095;DHT22;20372;47.080;15.410;2022-10-24T11:17:31;18.30;99.90
34095;DHT22;20372;47.080;15.410;2022-10-24T11:20:06;18.40;99.90
34095;DHT22;20372;47.080;15.410;2022-10-24T11:22:58;18.40;99.90
34095;DHT22;20372;47.080;15.410;2022-10-24T11:28:11;18.40;99.90
34095;DHT22;20372;47.080;15.410;2022-10-24T11:30:41;18.50;99.90
34095;DHT22;20372;47.080;15.410;2022-10-24T11:33:10;18.50;99.90
34095;DHT22;20372;47.080;15.410;2022-10-24T11:35:38;18.50;99.90
34095;DHT22;20372;47.080;15.410;2022-10-24T11:38:13;18.70;99.90
34095;DHT22;20372;47.080;15.410;2022-10-24T11:40:40;18.70;99.90
34095;DHT22;20372;47.080;15.410;2022-10-24T11:43:15;18.80;99.90
34095;DHT22;20372;47.080;15.410;2022-10-24T11:55:41;19.00;99.90
34095;DHT22;20372;47.080;15.410;2022-10-24T11:58:11;19.20;99.90
34095;DHT22;20372;47.080;15.410;2022-10-24T12:05:49;19.30;99.90
34095;DHT22;20372;47.080;15.410;2022-10-24T12:16:29;19.20;99.90
34095;DHT22;20372;47.080;15.410;2022-10-24T12:18:59;19.20;99.90
34095;DHT22;20372;47.080;15.410;2022-10-24T12:21:27;19.20;99.90
34095;DHT22;20372;47.080;15.410;2022-10-24T12:23:58;19.20;99.90
34095;DHT22;20372;47.080;15.410;2022-10-24T12:26:28;19.20;99.90
34095;DHT22;20372;47.080;15.410;2022-10-24T12:28:55;19.10;99.90
34095;DHT22;20372;47.080;15.410;2022-10-24T12:31:22;19.10;99.90
34095;DHT22;20372;47.080;15.410;2022-10-24T12:39:28;19.00;99.90
34095;DHT22;20372;47.080;15.410;2022-10-24T12:41:54;18.90;99.90
34095;DHT22;20372;47.080;15.410;2022-10-24T12:46:59;18.90;99.90
34095;DHT22;20372;47.080;15.410;2022-10-24T12:49:29;18.80;99.90
34095;DHT22;20372;47.080;15.410;2022-10-24T12:51:56;18.60;99.90
34095;DHT22;20372;47.080;15.410;2022-10-24T12:54:43;18.60;99.90
34095;DHT22;20372;47.080;15.410;2022-10-24T12:59:34;18.40;99.90
34095;DHT22;20372;47.080;15.410;2022-10-24T13:09:49;18.50;99.90
34095;DHT22;20372;47.080;15.410;2022-10-24T13:17:46;18.60;99.90
34095;DHT22;20372;47.080;15.410;2022-10-24T13:20:19;18.70;99.90
34095;DHT22;20372;47.080;15.410;2022-10-24T13:22:46;18.70;99.90
34095;DHT22;20372;47.080;15.410;2022-10-24T13:27:44;18.80;99.90
34095;DHT22;20372;47.080;15.410;2022-10-24T13:30:23;18.90;99.90
34095;DHT22;20372;47.080;15.410;2022-10-24T13:32:49;18.90;99.90
34095;DHT22;20372;47.080;15.410;2022-10-24T13:35:17;18.90;99.90
34095;DHT22;20372;47.080;15.410;2022-10-24T13:37:45;18.80;99.90
34095;DHT22;20372;47.080;15.410;2022-10-24T13:40:30;18.80;99.90
34095;DHT22;20372;47.080;15.410;2022-10-24T13:43:00;18.70;99.90
34095;DHT22;20372;47.080;15.410;2022-10-24T13:48:14;18.70;99.90
34095;DHT22;20372;47.080;15.410;2022-10-24T13:50:48;18.70;99.90
34095;DHT22;20372;47.080;15.410;2022-10-24T13:53:33;18.70;99.90
34095;DHT22;20372;47.080;15.410;2022-10-24T13:56:03;18.60;99.90
34095;DHT22;20372;47.080;15.410;2022-10-24T13:58:39;18.60;99.90
34095;DHT22;20372;47.080;15.410;2022-10-24T14:01:07;18.60;99.90
34095;DHT22;20372;47.080;15.410;2022-10-24T14:03:35;18.70;99.90
34095;DHT22;20372;47.080;15.410;2022-10-24T14:06:02;18.70;99.90
34095;DHT22;20372;47.080;15.410;2022-10-24T14:10:54;19.00;99.90
34095;DHT22;20372;47.080;15.410;2022-10-24T14:13:20;18.90;99.90
34095;DHT22;20372;47.080;15.410;2022-10-24T14:15:51;18.90;99.90
34095;DHT22;20372;47.080;15.410;2022-10-24T14:18:18;19.00;99.90
34095;DHT22;20372;47.080;15.410;2022-10-24T14:20:49;19.00;99.90
34095;DHT22;20372;47.080;15.410;2022-10-24T14:23:51;19.00;99.90
34095;DHT22;20372;47.080;15.410;2022-10-24T14:26:11;19.00;99.90
34095;DHT22;20372;47.080;15.410;2022-10-24T14:28:38;18.90;99.90
34095;DHT22;20372;47.080;15.410;2022-10-24T14:31:22;19.00;99.90
34095;DHT22;20372;47.080;15.410;2022-10-24T14:33:49;19.10;99.90
34095;DHT22;20372;47.080;15.410;2022-10-24T14:36:16;19.20;99.90
34095;DHT22;20372;47.080;15.410;2022-10-24T14:38:45;19.10;99.90
34095;DHT22;20372;47.080;15.410;2022-10-24T14:41:11;19.10;99.90
34095;DHT22;20372;47.080;15.410;2022-10-24T14:43:37;18.90;99.90
34095;DHT22;20372;47.080;15.410;2022-10-24T14:48:31;18.80;99.90
34095;DHT22;20372;47.080;15.410;2022-10-24T14:51:16;18.70;99.90
34095;DHT22;20372;47.080;15.410;2022-10-24T14:53:45;18.60;99.90
34095;DHT22;20372;47.080;15.410;2022-10-24T14:58:48;18.60;99.90
34095;DHT22;20372;47.080;15.410;2022-10-24T15:01:15;18.60;99.90
34095;DHT22;20372;47.080;15.410;2022-10-24T15:03:55;18.60;99.90
34095;DHT22;20372;47.080;15.410;2022-10-24T15:06:24;18.60;99.90
34095;DHT22;20372;47.080;15.410;2022-10-24T15:11:46;18.70;99.90
34095;DHT22;20372;47.080;15.410;2022-10-24T15:16:56;18.60;99.90
34095;DHT22;20372;47.080;15.410;2022-10-24T15:19:23;18.50;99.90
34095;DHT22;20372;47.080;15.410;2022-10-24T15:21:48;18.30;99.90
34095;DHT22;20372;47.080;15.410;2022-10-24T15:24:23;18.20;99.90
34095;DHT22;20372;47.080;15.410;2022-10-24T15:26:50;18.10;99.90
34095;DHT22;20372;47.080;15.410;2022-10-24T15:29:17;18.00;99.90
34095;DHT22;20372;47.080;15.410;2022-10-24T15:31:44;17.90;99.90
34095;DHT22;20372;47.080;15.410;2022-10-24T15:34:14;17.60;99.90
34095;DHT22;20372;47.080;15.410;2022-10-24T15:36:40;17.50;99.90
34095;DHT22;20372;47.080;15.410;2022-10-24T15:39:10;17.30;99.90
34095;DHT22;20372;47.080;15.410;2022-10-24T15:41:37;17.20;99.90
34095;DHT22;20372;47.080;15.410;2022-10-24T15:44:23;17.00;99.90
34095;DHT22;20372;47.080;15.410;2022-10-24T15:46:49;17.00;99.90
34095;DHT22;20372;47.080;15.410;2022-10-24T15:49:15;16.80;99.90
34095;DHT22;20372;47.080;15.410;2022-10-24T15:51:41;16.80;99.90
34095;DHT22;20372;47.080;15.410;2022-10-24T15:54:11;16.70;99.90
34095;DHT22;20372;47.080;15.410;2022-10-24T15:56:36;16.60;99.90
34095;DHT22;20372;47.080;15.410;2022-10-24T15:59:02;16.50;99.90
34095;DHT22;20372;47.080;15.410;2022-10-24T16:03:53;16.30;99.90
34095;DHT22;20372;47.080;15.410;2022-10-24T16:06:19;16.20;99.90
34095;DHT22;20372;47.080;15.410;2022-10-24T16:08:46;16.10;99.90
34095;DHT22;20372;47.080;15.410;2022-10-24T16:11:12;16.00;99.90
34095;DHT22;20372;47.080;15.410;2022-10-24T16:13:37;15.80;99.90
34095;DHT22;20372;47.080;15.410;2022-10-24T16:16:03;15.80;99.90
34095;DHT22;20372;47.080;15.410;2022-10-24T16:18:29;15.80;99.90
34095;DHT22;20372;47.080;15.410;2022-10-24T16:20:56;15.80;99.90
34095;DHT22;20372;47.080;15.410;2022-10-24T16:23:22;15.70;99.90
34095;DHT22;20372;47.080;15.410;2022-10-24T16:25:47;15.60;99.90
34095;DHT22;20372;47.080;15.410;2022-10-24T16:28:13;15.70;99.90
34095;DHT22;20372;47.080;15.410;2022-10-24T16:30:39;15.60;99.90
34095;DHT22;20372;47.080;15.410;2022-10-24T16:33:05;15.60;99.90
34095;DHT22;20372;47.080;15.410;2022-10-24T16:35:31;15.50;99.90
34095;DHT22;20372;47.080;15.410;2022-10-24T16:37:58;15.40;99.90
34095;DHT22;20372;47.080;15.410;2022-10-24T16:40:24;15.40;99.90
34095;DHT22;20372;47.080;15.410;2022-10-24T16:42:51;15.40;99.90
34095;DHT22;20372;47.080;15.410;2022-10-24T16:45:17;15.50;99.90
34095;DHT22;20372;47.080;15.410;2022-10-24T16:47:43;15.50;99.90
34095;DHT22;20372;47.080;15.410;2022-10-24T16:50:16;15.50;99.90
34095;DHT22;20372;47.080;15.410;2022-10-24T16:52:42;15.40;99.90
34095;DHT22;20372;47.080;15.410;2022-10-24T16:55:12;15.40;99.90
34095;DHT22;20372;47.080;15.410;2022-10-24T16:57:37;15.40;99.90
34095;DHT22;20372;47.080;15.410;2022-10-24T17:00:03;15.50;99.90
34095;DHT22;20372;47.080;15.410;2022-10-24T17:02:30;15.50;99.90
34095;DHT22;20372;47.080;15.410;2022-10-24T17:04:56;15.50;99.90
34095;DHT22;20372;47.080;15.410;2022-10-24T17:07:21;15.60;99.90
34095;DHT22;20372;47.080;15.410;2022-10-24T17:09:47;15.70;99.90
34095;DHT22;20372;47.080;15.410;2022-10-24T17:12:13;15.70;99.90
34095;DHT22;20372;47.080;15.410;2022-10-24T17:14:38;15.70;99.90
34095;DHT22;20372;47.080;15.410;2022-10-24T17:17:04;15.60;99.90
34095;DHT22;20372;47.080;15.410;2022-10-24T17:19:29;15.60;99.90
34095;DHT22;20372;47.080;15.410;2022-10-24T17:21:58;15.50;99.90
34095;DHT22;20372;47.080;15.410;2022-10-24T17:24:24;15.40;99.90
34095;DHT22;20372;47.080;15.410;2022-10-24T17:26:50;15.40;99.90
34095;DHT22;20372;47.080;15.410;2022-10-24T17:29:29;15.40;99.90
34095;DHT22;20372;47.080;15.410;2022-10-24T17:31:55;15.40;99.90
34095;DHT22;20372;47.080;15.410;2022-10-24T17:34:21;15.40;99.90